createdAt,value
2019-01-13T00:00:48.209Z,86.76
2019-01-13T00:05:42.824Z,86.50
2019-01-13T00:10:37.412Z,86.45
2019-01-13T00:15:32.042Z,86.53
2019-01-13T00:20:26.621Z,87.50
2019-01-13T00:25:21.391Z,87.08
2019-01-13T00:30:19.751Z,86.95
2019-01-13T00:35:14.734Z,86.17
2019-01-13T00:40:16.204Z,87.39
2019-01-13T00:45:13.625Z,87.57
2019-01-13T00:50:14.746Z,88.14
2019-01-13T00:55:12.492Z,87.52
2019-01-13T01:00:26.762Z,87.82
2019-01-13T01:05:19.713Z,87.88
2019-01-13T01:10:17.766Z,88.06
2019-01-13T01:15:13.288Z,88.41
2019-01-13T01:20:16.586Z,87.90
2019-01-13T01:25:15.567Z,88.12
2019-01-13T01:30:16.835Z,88.78
2019-01-13T01:35:13.330Z,88.00
2019-01-13T01:40:17.432Z,88.19
2019-01-13T01:45:14.948Z,87.84
2019-01-13T01:50:12.995Z,88.08
2019-01-13T01:55:12.069Z,87.68
2019-01-13T02:00:11.239Z,87.45
2019-01-13T02:05:07.356Z,86.75
2019-01-13T02:10:01.942Z,87.44
2019-01-13T02:14:56.529Z,87.63
2019-01-13T02:19:51.112Z,87.37
2019-01-13T02:24:45.711Z,87.20
2019-01-13T02:29:40.298Z,86.64
2019-01-13T02:34:34.913Z,86.90
2019-01-13T02:39:29.508Z,86.64
2019-01-13T02:44:24.087Z,86.72
2019-01-13T02:49:18.679Z,86.39
2019-01-13T02:54:13.260Z,87.07
2019-01-13T02:59:07.852Z,87.08
2019-01-13T03:04:02.440Z,87.07
2019-01-13T03:08:57.021Z,86.51
2019-01-13T03:13:51.592Z,87.12
2019-01-13T03:18:46.216Z,87.43
2019-01-13T03:23:40.802Z,86.85
2019-01-13T03:28:35.390Z,86.96
2019-01-13T03:33:29.946Z,86.65
2019-01-13T03:38:24.541Z,86.76
2019-01-13T03:43:19.125Z,86.50
2019-01-13T03:48:13.854Z,86.55
2019-01-13T03:53:08.494Z,86.72
2019-01-13T03:58:03.076Z,86.61
2019-01-13T04:02:57.765Z,86.05
2019-01-13T04:07:52.890Z,86.70
2019-01-13T04:12:48.032Z,85.60
2019-01-13T04:17:42.663Z,86.79
2019-01-13T04:22:37.280Z,86.99
2019-01-13T04:27:31.850Z,87.27
2019-01-13T04:32:26.465Z,86.38
2019-01-13T04:37:21.046Z,86.83
2019-01-13T04:42:15.645Z,86.47
2019-01-13T04:47:10.215Z,86.14
2019-01-13T04:52:04.952Z,85.46
2019-01-13T04:56:59.548Z,85.63
2019-01-13T05:01:54.129Z,85.48
2019-01-13T05:06:48.711Z,85.85
2019-01-13T05:11:43.294Z,86.44
2019-01-13T05:16:37.902Z,86.71
2019-01-13T05:21:32.462Z,86.25
2019-01-13T05:26:27.045Z,86.22
2019-01-13T05:31:21.629Z,85.86
2019-01-13T05:36:16.214Z,85.72
2019-01-13T05:41:10.794Z,85.88
2019-01-13T05:46:05.521Z,86.14
2019-01-13T05:51:00.112Z,86.27
2019-01-13T05:55:54.779Z,85.22
2019-01-13T06:00:49.447Z,85.90
2019-01-13T06:05:44.026Z,85.75
2019-01-13T06:10:38.610Z,84.85
2019-01-13T06:15:33.200Z,84.84
2019-01-13T06:20:27.818Z,84.30
2019-01-13T06:25:22.540Z,85.14
2019-01-13T06:30:20.503Z,85.31
2019-01-13T06:35:15.311Z,85.59
2019-01-13T06:40:16.680Z,85.70
2019-01-13T06:45:15.552Z,86.11
2019-01-13T06:50:14.020Z,87.54
2019-01-13T06:55:10.300Z,87.98
2019-01-13T07:00:18.273Z,88.04
2019-01-13T07:05:12.987Z,88.02
2019-01-13T07:10:11.264Z,88.09
2019-01-13T07:15:10.667Z,87.90
2019-01-13T07:20:10.364Z,87.73
2019-01-13T07:25:06.462Z,87.07
2019-01-13T07:30:01.053Z,86.79
2019-01-13T07:34:55.666Z,86.50
2019-01-13T07:39:50.255Z,85.34
2019-01-13T07:44:44.853Z,85.53
2019-01-13T07:49:39.423Z,84.83
2019-01-13T07:54:34.095Z,84.71
2019-01-13T07:59:28.686Z,84.68
2019-01-13T08:04:23.290Z,84.75
2019-01-13T08:09:17.839Z,84.64
2019-01-13T08:14:12.530Z,85.19
2019-01-13T08:19:07.266Z,85.36
2019-01-13T08:24:01.829Z,85.53
2019-01-13T08:28:56.457Z,85.73
2019-01-13T08:33:51.045Z,86.32
2019-01-13T08:38:45.639Z,86.60
2019-01-13T08:43:40.224Z,86.88
2019-01-13T08:48:34.830Z,87.03
2019-01-13T08:53:29.456Z,86.95
2019-01-13T08:58:24.048Z,87.27
2019-01-13T09:03:18.727Z,87.40
2019-01-13T09:08:13.508Z,87.37
2019-01-13T09:13:08.087Z,87.53
2019-01-13T09:18:02.784Z,87.52
2019-01-13T09:22:59.167Z,87.74
2019-01-13T09:27:53.855Z,87.80
2019-01-13T09:32:48.514Z,88.28
2019-01-13T09:37:43.349Z,88.41
2019-01-13T09:42:37.918Z,88.41
2019-01-13T09:47:32.519Z,88.70
2019-01-13T09:52:27.101Z,88.55
2019-01-13T09:57:21.709Z,87.56
2019-01-13T10:02:16.275Z,87.62
2019-01-13T10:07:10.872Z,87.17
2019-01-13T10:12:05.654Z,86.75
2019-01-13T10:17:00.260Z,87.16
2019-01-13T10:21:54.821Z,86.82
2019-01-13T10:26:49.434Z,87.20
2019-01-13T10:31:44.160Z,87.22
2019-01-13T10:36:38.750Z,86.68
2019-01-13T10:41:33.350Z,86.97
2019-01-13T10:46:27.964Z,87.61
2019-01-13T10:51:22.568Z,87.38
2019-01-13T10:56:17.140Z,86.93
2019-01-13T11:01:11.745Z,88.10
2019-01-13T11:06:06.443Z,86.84
2019-01-13T11:11:01.036Z,85.77
2019-01-13T11:15:55.625Z,86.59
2019-01-13T11:20:50.201Z,86.45
2019-01-13T11:25:44.787Z,86.85
2019-01-13T11:30:39.353Z,87.78
2019-01-13T11:35:33.974Z,86.84
2019-01-13T11:40:30.273Z,86.73
2019-01-13T11:45:25.051Z,88.09
2019-01-13T11:50:22.750Z,87.77
2019-01-13T11:55:18.644Z,89.04
2019-01-13T12:00:31.965Z,87.84
2019-01-13T12:05:26.586Z,87.80
2019-01-13T12:10:22.507Z,87.23
2019-01-13T12:15:20.599Z,87.57
2019-01-13T12:20:22.043Z,87.85
2019-01-13T12:25:19.851Z,86.79
2019-01-13T12:30:19.345Z,87.24
2019-01-13T12:35:13.966Z,86.63
2019-01-13T12:40:15.922Z,87.67
2019-01-13T12:45:15.216Z,86.73
2019-01-13T12:50:20.437Z,86.64
2019-01-13T12:55:15.252Z,86.40
2019-01-13T13:00:16.837Z,87.05
2019-01-13T13:05:14.320Z,86.74
2019-01-13T13:10:25.274Z,86.65
2019-01-13T13:15:19.843Z,86.01
2019-01-13T13:20:17.839Z,86.27
2019-01-13T13:25:14.631Z,86.07
2019-01-13T13:30:16.682Z,86.38
2019-01-13T13:35:11.561Z,86.35
2019-01-13T13:40:19.728Z,86.76
2019-01-13T13:45:14.522Z,87.12
2019-01-13T13:50:16.530Z,87.21
2019-01-13T13:55:12.184Z,87.61
2019-01-13T14:00:20.630Z,87.72
2019-01-13T14:05:15.398Z,87.72
2019-01-13T14:10:20.124Z,87.63
2019-01-13T14:15:14.834Z,88.03
2019-01-13T14:20:16.483Z,88.11
2019-01-13T14:25:11.359Z,88.39
2019-01-13T14:30:10.533Z,88.57
2019-01-13T14:35:08.219Z,88.79
2019-01-13T14:40:03.367Z,88.97
2019-01-13T14:44:57.958Z,89.48
2019-01-13T14:49:52.552Z,89.71
2019-01-13T14:54:47.136Z,89.59
2019-01-13T14:59:41.747Z,89.80
2019-01-13T15:04:36.352Z,89.45
2019-01-13T15:09:30.932Z,89.83
2019-01-13T15:14:25.511Z,89.61
2019-01-13T15:19:20.111Z,89.71
2019-01-13T15:24:14.719Z,89.46
2019-01-13T15:29:09.706Z,89.47
2019-01-13T15:34:07.370Z,89.56
2019-01-13T15:39:01.238Z,89.33
2019-01-13T15:43:55.821Z,89.42
2019-01-13T15:48:50.419Z,89.18
2019-01-13T15:53:45.013Z,89.09
2019-01-13T15:58:39.631Z,89.07
2019-01-13T16:03:34.204Z,89.11
2019-01-13T16:08:28.797Z,88.87
2019-01-13T16:13:23.386Z,88.31
2019-01-13T16:18:17.972Z,88.34
2019-01-13T16:23:12.696Z,88.11
2019-01-13T16:28:08.615Z,88.43
2019-01-13T16:33:03.196Z,88.33
2019-01-13T16:37:57.790Z,88.60
2019-01-13T16:42:52.384Z,89.28
2019-01-13T16:47:48.083Z,89.15
2019-01-13T16:52:44.186Z,88.54
2019-01-13T16:57:38.853Z,88.66
2019-01-13T17:02:33.483Z,88.35
2019-01-13T17:07:28.249Z,88.30
2019-01-13T17:12:22.832Z,88.18
2019-01-13T17:17:17.511Z,87.41
2019-01-13T17:22:12.079Z,86.94
2019-01-13T17:27:08.241Z,86.82
2019-01-13T17:32:02.826Z,86.67
2019-01-13T17:36:59.197Z,86.35
2019-01-13T17:41:53.813Z,86.55
2019-01-13T17:46:48.416Z,87.26
2019-01-13T17:51:43.010Z,87.72
2019-01-13T17:56:37.600Z,87.34
2019-01-13T18:01:32.192Z,87.16
2019-01-13T18:06:26.788Z,86.89
2019-01-13T18:11:21.371Z,87.13
2019-01-13T18:16:15.949Z,87.38
2019-01-13T18:21:10.593Z,87.83
2019-01-13T18:26:05.229Z,88.13
2019-01-13T18:30:59.824Z,87.85
2019-01-13T18:35:54.419Z,88.03
2019-01-13T18:40:49.054Z,87.62
2019-01-13T18:45:43.683Z,87.81
2019-01-13T18:50:38.333Z,88.31
2019-01-13T18:55:32.926Z,88.88
2019-01-13T19:00:27.729Z,88.87
2019-01-13T19:05:30.039Z,89.03
2019-01-13T19:10:38.404Z,88.92
2019-01-13T19:15:32.981Z,88.56
2019-01-13T19:20:28.344Z,88.52
2019-01-13T19:25:23.051Z,87.72
2019-01-13T19:30:18.054Z,87.46
2019-01-13T19:35:16.325Z,87.60
2019-01-13T19:40:15.654Z,87.36
2019-01-13T19:45:17.911Z,86.99
2019-01-13T19:50:17.331Z,86.77
2019-01-13T19:55:15.955Z,86.64
2019-01-13T20:00:21.133Z,86.52
2019-01-13T20:05:15.701Z,86.53
2019-01-13T20:10:14.604Z,86.43
2019-01-13T20:15:16.699Z,86.12
2019-01-13T20:20:15.494Z,86.75
2019-01-13T20:25:13.989Z,86.76
2019-01-13T20:30:13.237Z,86.62
2019-01-13T20:35:09.150Z,87.00
2019-01-13T20:40:05.728Z,87.32
2019-01-13T20:45:00.308Z,87.83
2019-01-13T20:49:54.920Z,87.62
2019-01-13T20:54:49.521Z,88.01
2019-01-13T20:59:44.107Z,88.05
2019-01-13T21:04:38.711Z,88.39
2019-01-13T21:09:33.321Z,88.50
2019-01-13T21:14:27.891Z,88.89
2019-01-13T21:19:22.507Z,89.17
2019-01-13T21:24:17.066Z,89.22
2019-01-13T21:29:11.654Z,89.02
2019-01-13T21:34:06.463Z,88.95
2019-01-13T21:39:01.057Z,88.55
2019-01-13T21:43:55.665Z,88.48
2019-01-13T21:48:50.241Z,88.14
2019-01-13T21:53:44.842Z,87.65
2019-01-13T21:58:39.402Z,86.75
2019-01-13T22:03:34.020Z,85.82
2019-01-13T22:08:28.612Z,84.44
2019-01-13T22:13:23.223Z,83.39
2019-01-13T22:18:17.795Z,82.84
2019-01-13T22:23:12.381Z,83.02
2019-01-13T22:28:06.968Z,83.69
2019-01-13T22:33:01.566Z,85.50
2019-01-13T22:37:56.201Z,87.84
2019-01-13T22:42:50.971Z,88.44
2019-01-13T22:47:46.086Z,88.77
2019-01-13T22:52:40.852Z,88.47
2019-01-13T22:57:35.421Z,87.87
2019-01-13T23:02:30.164Z,87.78
2019-01-13T23:07:24.783Z,87.37
2019-01-13T23:12:19.381Z,87.32
2019-01-13T23:17:13.945Z,87.15
2019-01-13T23:22:08.546Z,87.04
2019-01-13T23:27:03.121Z,87.16
2019-01-13T23:31:57.710Z,87.00
2019-01-13T23:36:52.282Z,87.00
2019-01-13T23:41:46.869Z,86.70
2019-01-13T23:46:41.459Z,86.47
2019-01-13T23:51:36.104Z,87.19
2019-01-13T23:56:30.831Z,86.23
